Αρχική σελίδα
METAR-TAF:

METAR-TAF

Αεροδρόμια :

Τεχεράνη, Ιράν

γεωγραφικό πλάτος: 35-41N, γεωγραφικό μήκος: 051-21E, υψόμετρο: 1204 μ

Παρών καιρός

Η αναφορά έγινε 29 λεπτά πριν, στις 08:00 UTC
Ήπιος άνεμος
Θερμοκρασία 31°C
Υγρασία 17%
Πίεση 1014 hPa
Ορατότητα 10 χλμ και άνω
Λίγα νέφη σε ύψος 3500 πόδια

METAR: OIII 210800Z 00000KT 9999 FEW035 31/03 Q1014 A2995 NOSIG

Χρόνος: 12:59 (08:29 UTC)

Πρόγνωση Καιρού

Η αναφορά έγινε 2 ώρες και 59 λεπτά πριν, στις 05:30 UTC
Η πρόγνωση ισχύει από τις 21 στις 06 UTC έως τις 22 στις 12 UTC
Άνεμος 8 kt από Ν/ΝΔ
Ορατότητα: 7000 μ

TAF: OIII 210530Z 2106/2212 21004MPS 7000 NSC

Μετεωρολογικές αναφορές και προγνώσεις για περισσότερα από 4000 αεροδρόμια (δελτία METAR και TAF).

Οι διαθέσιμοι σταθμοί απεικονίζονται στο χάρτη με κίτρινες και κόκκινες κουκκίδες.

Μετακινήστε το ποντίκι πάνω από τις κουκκίδες για να δείτε το όνομα του σταθμού.

Στη συνέχεια, κάντε κλικ για να δείτε τις μετεωρολογικές αναφορές και τις προγνώσεις καιρού.

Για να αλλάξετε το χάρτη: κάντε κλικ στα πράσινα κουμπιά με τον μαύρο σταυρό για να ζουμάρετε, στο πράσινο κουμπί με την παύλα για να αφαιρέσετε το ζουμ ή στα πράσινα βέλη για να αντιπαραβάλλετε χάρτες.


METAR-TAF: